STAZIONE METEO DI BARCELLONA P.G. CENTRO
Dati campionati ogni minuto da Consolle Davis Vantage Pro 2
ed inviati alla rete mediante server Anemos WDS5 wview



Barcellona P.G. Centro more information Barcellona P.G. Centro


Golfo di Patti more information Golfo di Patti


Thunder radar more information blitzortung!


Rain radar  rain snow radar


altri nostri siti meteo:

Rischio IncendiRischio Incendi

Rete NOAA MADIS

Italia Meteo Network

PomeziameteoSito web di stazione meteo amica



Esiste un problema di comunicazione. Vai direttamente al : www.meteoalarm.eu e controllare il meteo-avvertimenti.

Report METAR

   
LICF - Messina, Italy
Distanza dalla stazione: NE 30 km
Dati ricevuti: 02-02-2023 07:55
Poche nuvole  
Poche nuvole  
   Vento: calma
Vento: calma
Temperatura: 10°C
P.to Rugiada: 4°C
Umidità: 67%
Barometro: 1022 hPa
Nuvole: Poche nuvole
Visibilità: oltre 10 km
dettagli cloud: Poche nuvole 1219.2 m
LICF 020655Z 00000KT 9999 FEW040 10/04 Q1022 RMK SCT QUK 1 QUL 0 VIS MAR 20 KM MON LIB NC VIS MIN 9999
LICR - Reggio Calabria, Italy
Distanza dalla stazione: SE 39 km
Dati ricevuti: 02-02-2023 07:50
Sereno  
Sereno  
   Vento: Nord 9.3 km/h
Vento: Nord 9.3 km/h
Temperatura: 8°C
Temperatura Vento: 7°C
P.to Rugiada: 3°C
Umidità: 71%
Barometro: 1023 hPa
Nuvole: Sereno
Visibilità: oltre 10 km
dettagli cloud: Sereno
LICR 020650Z AUTO 36005KT 9999 NCD 08/03 Q1023
LICC - Catania/Fontanar, Italy
Distanza dalla stazione: S 77 km
Dati ricevuti: 02-02-2023 07:50
Parzialmente nuvoloso  
Parzialmente nuvoloso  
   Vento: West 7.4 km/h
Vento: West 7.4 km/h
Temperatura: 5°C
Temperatura Vento: 3°C
P.to Rugiada: 3°C
Umidità: 87%
Barometro: 1023 hPa
Nuvole: Parzialmente nuvoloso
Visibilità: oltre 10 km
dettagli cloud: Parzialmente nuvoloso 2133.6 m
LICC 020650Z 26004KT 9999 SCT070 05/03 Q1023
LICZ - Sigonella (nas), Italy
Distanza dalla stazione: S 89 km
Dati ricevuti: 02-02-2023 07:55
Molto nuvoloso  
Molto nuvoloso  
   Vento: Variabile calma
Vento: Variabile calma
Temperatura: 6°C
P.to Rugiada: 6°C
Umidità: 100%
Barometro: 1022 hPa
Nuvole: Molto nuvoloso
Visibilità: oltre 10 km
dettagli cloud: Poche nuvole 1828.8 m,
Molto nuvoloso 2133.6 m
LICZ 020655Z /////KT 9999 FEW060 BKN070 06/06 Q1022
LICA - Lamezia Terme, Italy
Distanza dalla stazione: NE 122 km
Dati ricevuti: 02-02-2023 07:50
Molto nuvoloso  
Molto nuvoloso  
   Vento: NE 5.6 km/h
Vento: NE 5.6 km/h
Temperatura: 6°C
Temperatura Vento: 5°C
P.to Rugiada: 6°C
Umidità: 100%
Barometro: 1023 hPa
Nuvole: Molto nuvoloso
Visibilità: oltre 10 km
dettagli cloud: Molto nuvoloso 1463 m
LICA 020650Z AUTO 07003KT 040V100 9999 BKN048/// 06/06 Q1023
LICB - Comiso, Italy
Distanza dalla stazione: S 138 km
Dati ricevuti: 02-02-2023 07:50
Molto nuvoloso  
Molto nuvoloso  
   Vento: NE 3.7 km/h
Vento: NE 3.7 km/h
Temperatura: 8°C
P.to Rugiada: 7°C
Umidità: 93%
Barometro: 1023 hPa
Nuvole: Molto nuvoloso
Visibilità: oltre 10 km
dettagli cloud: Parzialmente nuvoloso 396.2 m,
Molto nuvoloso 2042.2 m
LICB 020650Z AUTO 03002KT 9999 SCT013/// BKN067/// 08/07 Q1023

Script sviluppato da  Saratoga-weather.org Adattato per il modello da  Weerstation Leuven

Potete trovare le nostre info meteo anche a:

European Weather Network

Weather Underground

AWEKAS

Citizen Weather Observer Program (CWOP)

HAMweather, WeatherForYou, PWS Weather

Attrezzature usate:

Stazione meteo
Davis VP2

Programma gestore dati meteo
WVIEW

Server per i dati meteo
WDS5 Ecoblack

Davis VP2

WVIEW

WDS5 Ecoblack